Time;durP1;ratioP1;P1;durP2;ratioP2;P2;SDS_P1;SDS_P2;PMS_P1;PMS_P2;Temp;Humidity;BMP_temperature;BMP_pressure;BME280_temperature;BME280_humidity;BME280_pressure;Samples;Min_cycle;Max_cycle;Signal;HPM_P1;HPM_P2
2023/06/17 00:01:20;;;;;;;;;;;;;;;19.44;58.68;99438.66;5305478;26;32869;-84
2023/06/17 00:03:47;;;;;;;;;;;;;;;19.35;59.05;99440.31;5305389;26;33523;-84
2023/06/17 00:06:14;;;;;;;;;;;;;;;19.47;58.25;99430.37;5305438;26;33942;-84
2023/06/17 00:08:42;;;;;;;;;;;;;;;19.69;57.24;99440.94;5305422;26;31983;-85
2023/06/17 00:11:10;;;;;;;;;;;;;;;19.24;58.49;99434.19;5287539;26;34537;-84
2023/06/17 00:13:37;;;;;;;;;;;;;;;19.31;58.45;99424.63;5323776;26;33591;-84
2023/06/17 00:16:06;;;;;;;;;;;;;;;19.32;58.23;99421.84;5323654;26;34990;-84
2023/06/17 00:18:33;;;;;;;;;;;;;;;19.22;58.29;99422.75;5306008;26;34245;-84
2023/06/17 00:21:02;;;;;;;;;;;;;;;19.32;57.73;99420.97;5323954;26;33968;-85
2023/06/17 00:23:30;;;;;;;;;;;;;;;19.18;58.12;99425.72;5287554;26;33140;-84
2023/06/17 00:25:58;;;;;;;;;;;;;;;19.21;58.18;99434.44;5323272;26;33844;-85
2023/06/17 00:28:25;;;;;;;;;;;;;;;19.08;58.36;99424.75;5287417;26;32090;-83
2023/06/17 00:30:53;;;;;;;;;;;;;;;19.01;57.98;99420.09;5287070;26;33024;-83
2023/06/17 00:33:21;;;;;;;;;;;;;;;18.94;58.17;99427.75;5306306;26;34227;-84
2023/06/17 00:35:49;;;;;;;;;;;;;;;19.19;56.82;99422.03;5305243;26;33355;-84
2023/06/17 00:38:22;;;;;;;;;;;;;;;19.16;56.23;99433.00;5306603;26;33310;-83
2023/06/17 00:40:50;;;;;;;;;;;;;;;19.11;55.90;99423.66;5343143;26;33953;-83
2023/06/17 00:43:17;;;;;;;;;;;;;;;19.10;54.73;99419.31;5323470;26;34205;-83
2023/06/17 00:45:48;;;;;;;;;;;;;;;19.25;53.73;99414.47;5304727;26;33080;-83
2023/06/17 00:48:15;;;;;;;;;;;;;;;19.17;53.93;99415.97;5323317;26;32749;-83
2023/06/17 00:50:46;;;;;;;;;;;;;;;18.91;54.33;99410.16;5323451;26;34137;-83
2023/06/17 00:53:13;;;;;;;;;;;;;;;18.82;55.01;99413.59;5306018;26;34131;-83
2023/06/17 00:55:41;;;;;;;;;;;;;;;19.03;54.25;99416.28;5323142;26;33914;-83
2023/06/17 00:58:08;;;;;;;;;;;;;;;19.09;53.70;99414.94;5323339;26;33056;-83
2023/06/17 01:00:36;;;;;;;;;;;;;;;19.32;53.07;99412.94;5287120;26;33461;-83
2023/06/17 01:03:05;;;;;;;;;;;;;;;19.18;53.86;99404.28;5287284;26;33198;-83
2023/06/17 01:05:32;;;;;;;;;;;;;;;19.26;53.47;99413.47;5323867;26;34022;-84
2023/06/17 01:08:00;;;;;;;;;;;;;;;19.23;53.94;99411.06;5305302;26;33882;-84
2023/06/17 01:10:28;;;;;;;;;;;;;;;19.10;54.30;99408.59;5323283;26;33981;-84
2023/06/17 01:12:55;;;;;;;;;;;;;;;18.99;54.68;99401.50;5324519;26;33957;-84
2023/06/17 01:15:24;;;;;;;;;;;;;;;19.21;54.27;99395.12;5288019;26;32994;-84
2023/06/17 01:17:54;;;;;;;;;;;;;;;19.21;54.19;99396.97;5324713;26;34610;-84
2023/06/17 01:20:23;;;;;;;;;;;;;;;19.13;54.66;99403.84;5306854;26;35696;-84
2023/06/17 01:22:54;;;;;;;;;;;;;;;19.23;53.78;99400.34;5288539;26;33077;-84
2023/06/17 01:25:29;;;;;;;;;;;;;;;19.27;53.69;99407.97;5306473;26;32897;-84
2023/06/17 01:28:00;;;;;;;;;;;;;;;19.25;53.31;99393.91;5308690;26;33268;-84
2023/06/17 01:30:28;;;;;;;;;;;;;;;18.99;54.08;99404.16;5306691;26;33860;-84
2023/06/17 01:32:57;;;;;;;;;;;;;;;19.01;54.26;99402.19;5324836;26;33933;-86
2023/06/17 01:35:32;;;;;;;;;;;;;;;19.26;53.28;99405.44;5325057;26;34265;-85
2023/06/17 01:38:15;;;;;;;;;;;;;;;19.30;53.34;99406.87;5306588;26;33430;-85
2023/06/17 01:40:43;;;;;;;;;;;;;;;19.31;53.28;99400.53;5307031;26;34471;-85
2023/06/17 01:43:11;;;;;;;;;;;;;;;19.15;53.88;99399.19;5287918;26;33206;-84
2023/06/17 01:45:39;;;;;;;;;;;;;;;19.21;53.62;99405.84;5305978;26;33109;-84
2023/06/17 01:48:07;;;;;;;;;;;;;;;19.11;53.80;99400.44;5324597;26;33107;-84
2023/06/17 01:50:36;;;;;;;;;;;;;;;19.17;53.78;99399.06;5324859;26;33924;-85
2023/06/17 01:53:04;;;;;;;;;;;;;;;19.13;54.02;99401.16;5306008;26;32888;-84
2023/06/17 01:55:31;;;;;;;;;;;;;;;19.29;53.62;99398.00;5286298;26;32610;-84
2023/06/17 01:57:59;;;;;;;;;;;;;;;19.13;54.31;99398.50;5322987;26;33722;-85
2023/06/17 02:00:26;;;;;;;;;;;;;;;19.02;54.99;99409.25;5305569;26;33495;-86
2023/06/17 02:02:56;;;;;;;;;;;;;;;19.21;54.43;99399.66;5325531;26;34973;-86
2023/06/17 02:05:24;;;;;;;;;;;;;;;19.00;55.19;99399.66;5306621;26;34364;-86
2023/06/17 02:07:52;;;;;;;;;;;;;;;19.07;54.92;99393.63;5306758;26;33956;-86
2023/06/17 02:10:20;;;;;;;;;;;;;;;19.13;54.63;99395.81;5323900;26;35009;-86
2023/06/17 02:12:48;;;;;;;;;;;;;;;19.00;55.01;99402.34;5323701;26;33959;-85
2023/06/17 02:15:16;;;;;;;;;;;;;;;19.05;54.37;99406.31;5305166;26;33934;-86
2023/06/17 02:17:44;;;;;;;;;;;;;;;18.60;55.61;99405.63;5322905;26;34144;-83
2023/06/17 02:20:12;;;;;;;;;;;;;;;18.61;55.45;99416.22;5323620;26;33756;-84
2023/06/17 02:22:40;;;;;;;;;;;;;;;18.45;56.18;99410.44;5324413;26;33848;-83
2023/06/17 02:25:08;;;;;;;;;;;;;;;18.57;55.83;99406.75;5306429;26;33131;-83
2023/06/17 02:27:35;;;;;;;;;;;;;;;18.46;55.93;99416.63;5305906;26;33046;-83
2023/06/17 02:30:03;;;;;;;;;;;;;;;18.60;55.55;99414.50;5306031;26;34145;-83
2023/06/17 02:32:31;;;;;;;;;;;;;;;18.53;55.37;99413.34;5288208;26;34146;-83
2023/06/17 02:34:59;;;;;;;;;;;;;;;18.54;55.74;99411.50;5306521;26;32936;-83
2023/06/17 02:37:27;;;;;;;;;;;;;;;18.34;55.84;99407.81;5324520;26;33717;-83
2023/06/17 02:39:55;;;;;;;;;;;;;;;18.54;55.69;99404.31;5324677;26;35045;-83
2023/06/17 02:42:23;;;;;;;;;;;;;;;18.77;54.68;99412.28;5324670;26;33923;-83
2023/06/17 02:44:50;;;;;;;;;;;;;;;18.67;54.70;99410.34;5324561;26;34442;-83
2023/06/17 02:47:18;;;;;;;;;;;;;;;18.84;53.96;99408.13;5306533;26;33542;-83
2023/06/17 02:49:45;;;;;;;;;;;;;;;18.53;54.83;99412.47;5306663;26;34262;-85
2023/06/17 02:52:14;;;;;;;;;;;;;;;18.73;54.27;99417.03;5325183;26;34378;-85
2023/06/17 02:54:42;;;;;;;;;;;;;;;18.62;54.49;99420.59;5287724;26;33255;-85
2023/06/17 02:57:11;;;;;;;;;;;;;;;18.76;54.25;99421.31;5306808;26;32594;-84
2023/06/17 02:59:39;;;;;;;;;;;;;;;18.80;54.25;99420.03;5324503;26;34240;-85
2023/06/17 03:02:06;;;;;;;;;;;;;;;18.74;54.08;99420.56;5344722;26;35053;-85
2023/06/17 03:04:35;;;;;;;;;;;;;;;18.55;54.87;99422.06;5306274;26;33483;-84
2023/06/17 03:07:04;;;;;;;;;;;;;;;18.02;56.64;99421.94;5324568;26;33428;-84
2023/06/17 03:09:31;;;;;;;;;;;;;;;18.46;55.51;99422.81;5287821;26;33313;-84
2023/06/17 03:11:59;;;;;;;;;;;;;;;18.29;55.75;99420.69;5287520;26;34095;-85
2023/06/17 03:14:29;;;;;;;;;;;;;;;18.42;55.22;99426.75;5306451;26;32926;-84
2023/06/17 03:16:57;;;;;;;;;;;;;;;18.17;56.07;99426.03;5306387;26;33224;-85
2023/06/17 03:19:25;;;;;;;;;;;;;;;18.39;55.23;99429.66;5324930;26;34260;-84
2023/06/17 03:21:57;;;;;;;;;;;;;;;18.20;56.04;99429.47;5324641;26;34799;-85
2023/06/17 03:24:25;;;;;;;;;;;;;;;18.47;55.01;99435.22;5324800;26;33760;-84
2023/06/17 03:26:53;;;;;;;;;;;;;;;18.19;56.09;99433.97;5324443;26;34045;-84
2023/06/17 03:29:21;;;;;;;;;;;;;;;18.25;56.04;99436.13;5306503;26;34056;-84
2023/06/17 03:31:50;;;;;;;;;;;;;;;18.29;55.56;99436.72;5305922;26;33406;-84
2023/06/17 03:34:17;;;;;;;;;;;;;;;18.11;56.04;99437.25;5323909;26;33258;-83
2023/06/17 03:36:47;;;;;;;;;;;;;;;18.22;55.74;99440.88;5306319;26;33929;-84
2023/06/17 03:39:22;;;;;;;;;;;;;;;18.11;56.16;99450.59;5306016;26;34667;-84
2023/06/17 03:41:50;;;;;;;;;;;;;;;18.42;55.50;99440.97;5344265;26;34802;-83
2023/06/17 03:44:17;;;;;;;;;;;;;;;18.11;56.07;99439.91;5306078;26;34402;-86
2023/06/17 03:46:45;;;;;;;;;;;;;;;18.43;55.97;99449.81;5287886;26;32696;-86
2023/06/17 03:49:13;;;;;;;;;;;;;;;18.61;55.46;99442.09;5324794;26;34943;-86
2023/06/17 03:51:40;;;;;;;;;;;;;;;18.40;55.97;99450.91;5306040;26;32963;-85
2023/06/17 03:54:08;;;;;;;;;;;;;;;18.58;55.63;99461.94;5306372;26;33190;-85
2023/06/17 03:56:36;;;;;;;;;;;;;;;18.81;54.89;99453.88;5324312;26;32353;-85
2023/06/17 03:59:04;;;;;;;;;;;;;;;18.38;56.21;99460.03;5324528;26;34003;-85
2023/06/17 04:01:31;;;;;;;;;;;;;;;18.39;56.44;99457.22;5306013;26;33074;-85
2023/06/17 04:03:59;;;;;;;;;;;;;;;18.76;55.24;99454.25;5306081;26;33328;-85
2023/06/17 04:06:27;;;;;;;;;;;;;;;18.88;54.80;99449.69;5288118;26;31852;-86
2023/06/17 04:08:54;;;;;;;;;;;;;;;19.02;54.37;99448.53;5306288;26;33056;-85
2023/06/17 04:11:22;;;;;;;;;;;;;;;18.82;54.57;99453.72;5288018;26;33108;-85
2023/06/17 04:13:49;;;;;;;;;;;;;;;19.00;54.38;99453.19;5324675;26;34643;-85
2023/06/17 04:16:17;;;;;;;;;;;;;;;18.85;55.14;99455.31;5324606;26;33357;-85
2023/06/17 04:18:45;;;;;;;;;;;;;;;18.77;55.75;99469.31;5306523;26;34039;-85
2023/06/17 04:21:13;;;;;;;;;;;;;;;19.16;54.06;99459.75;5306043;26;33399;-85
2023/06/17 04:23:40;;;;;;;;;;;;;;;19.42;53.32;99470.94;5287959;26;33105;-85
2023/06/17 04:26:17;;;;;;;;;;;;;;;19.42;52.89;99459.37;5324652;26;33462;-85
2023/06/17 04:28:47;;;;;;;;;;;;;;;19.43;53.25;99461.94;5306587;26;34793;-85
2023/06/17 04:31:15;;;;;;;;;;;;;;;19.35;53.64;99469.75;5324989;26;34303;-85
2023/06/17 04:33:43;;;;;;;;;;;;;;;19.52;52.90;99454.94;5287738;26;32566;-85
2023/06/17 04:36:11;;;;;;;;;;;;;;;19.55;52.72;99460.00;5305767;26;33478;-85
2023/06/17 04:38:42;;;;;;;;;;;;;;;19.26;53.70;99458.97;5287830;26;33100;-85
2023/06/17 04:41:09;;;;;;;;;;;;;;;19.29;53.41;99470.28;5306141;26;34216;-84
2023/06/17 04:43:36;;;;;;;;;;;;;;;19.13;54.15;99465.41;5305787;26;34898;-85
2023/06/17 04:46:05;;;;;;;;;;;;;;;19.85;52.15;99467.25;5306917;26;32707;-84
2023/06/17 04:48:34;;;;;;;;;;;;;;;19.60;53.22;99467.69;5325493;26;34248;-85
2023/06/17 04:51:03;;;;;;;;;;;;;;;19.42;53.42;99470.94;5325149;26;34015;-85
2023/06/17 04:53:31;;;;;;;;;;;;;;;19.58;53.17;99464.25;5325559;26;34545;-84
2023/06/17 04:56:00;;;;;;;;;;;;;;;19.52;53.19;99464.81;5306635;26;32520;-85
2023/06/17 04:58:28;;;;;;;;;;;;;;;19.80;52.38;99469.50;5306045;26;33230;-84
2023/06/17 05:00:56;;;;;;;;;;;;;;;19.86;52.35;99468.09;5304505;26;34035;-84
2023/06/17 05:03:24;;;;;;;;;;;;;;;19.77;52.51;99463.56;5321727;26;34702;-84
2023/06/17 05:05:53;;;;;;;;;;;;;;;19.72;52.49;99471.12;5303723;26;34106;-84
2023/06/17 05:08:21;;;;;;;;;;;;;;;19.50;53.03;99472.94;5304711;26;34791;-84
2023/06/17 05:10:49;;;;;;;;;;;;;;;19.57;53.22;99463.41;5304099;26;33802;-84
2023/06/17 05:13:17;;;;;;;;;;;;;;;19.68;52.79;99470.56;5303966;26;34090;-84
2023/06/17 05:15:45;;;;;;;;;;;;;;;19.67;53.05;99475.06;5322856;26;32740;-84
2023/06/17 05:18:13;;;;;;;;;;;;;;;19.63;53.42;99483.50;5285737;26;33379;-84
2023/06/17 05:20:41;;;;;;;;;;;;;;;19.90;53.05;99481.09;5321963;26;33125;-84
2023/06/17 05:23:09;;;;;;;;;;;;;;;19.72;53.18;99484.53;5322918;26;33655;-83
2023/06/17 05:25:37;;;;;;;;;;;;;;;19.62;53.78;99479.97;5286524;26;32377;-84
2023/06/17 05:28:10;;;;;;;;;;;;;;;19.44;53.93;99489.53;5322437;26;32797;-83
2023/06/17 05:30:42;;;;;;;;;;;;;;;19.82;52.73;99488.09;5304866;26;33411;-84
2023/06/17 05:33:11;;;;;;;;;;;;;;;19.88;53.00;99492.91;5324001;26;33937;-83
2023/06/17 05:35:39;;;;;;;;;;;;;;;19.84;52.85;99486.97;5303290;26;33343;-84
2023/06/17 05:38:06;;;;;;;;;;;;;;;20.15;52.21;99497.69;5303980;26;34193;-84
2023/06/17 05:40:34;;;;;;;;;;;;;;;20.13;52.27;99496.97;5285625;26;34444;-83
2023/06/17 05:43:02;;;;;;;;;;;;;;;20.09;52.35;99496.41;5303753;26;34888;-83
2023/06/17 05:45:29;;;;;;;;;;;;;;;19.96;52.50;99501.16;5303944;26;34113;-84
2023/06/17 05:47:57;;;;;;;;;;;;;;;20.20;52.45;99509.72;5341635;26;33923;-84
2023/06/17 05:50:27;;;;;;;;;;;;;;;20.34;51.84;99504.97;5304897;26;33939;-84
2023/06/17 05:52:54;;;;;;;;;;;;;;;20.27;51.95;99509.16;5285150;26;33894;-83
2023/06/17 05:55:22;;;;;;;;;;;;;;;20.21;52.06;99511.41;5342249;26;33003;-84
2023/06/17 05:57:51;;;;;;;;;;;;;;;20.08;52.68;99518.84;5285543;26;32657;-84
2023/06/17 06:00:22;;;;;;;;;;;;;;;20.30;52.40;99522.31;5323245;26;34348;-83
2023/06/17 06:02:52;;;;;;;;;;;;;;;20.58;51.93;99521.56;5304188;26;33690;-83
2023/06/17 06:05:20;;;;;;;;;;;;;;;20.73;51.53;99526.56;5302819;26;33197;-81
2023/06/17 06:07:47;;;;;;;;;;;;;;;20.73;51.08;99526.56;5305493;26;33969;-83
2023/06/17 06:10:15;;;;;;;;;;;;;;;21.05;50.46;99529.00;5304265;26;34241;-83
2023/06/17 06:12:43;;;;;;;;;;;;;;;20.98;50.49;99531.38;5343534;26;34291;-83
2023/06/17 06:15:14;;;;;;;;;;;;;;;21.25;50.48;99516.41;5304824;26;32258;-83
2023/06/17 06:17:42;;;;;;;;;;;;;;;20.93;51.25;99514.84;5304135;26;33432;-83
2023/06/17 06:20:11;;;;;;;;;;;;;;;20.57;52.01;99517.19;5287472;26;33146;-83
2023/06/17 06:22:39;;;;;;;;;;;;;;;21.27;50.25;99517.97;5321628;26;34173;-83
2023/06/17 06:25:07;;;;;;;;;;;;;;;21.48;50.14;99518.69;5302426;26;33534;-83
2023/06/17 06:27:36;;;;;;;;;;;;;;;21.05;50.72;99518.25;5303036;26;34817;-83
2023/06/17 06:30:04;;;;;;;;;;;;;;;21.88;48.78;99506.00;5301758;26;32939;-83
2023/06/17 06:32:32;;;;;;;;;;;;;;;21.67;49.86;99512.44;5320210;26;33379;-83
2023/06/17 06:35:01;;;;;;;;;;;;;;;22.03;48.47;99503.69;5302391;26;33059;-84
2023/06/17 06:37:28;;;;;;;;;;;;;;;21.91;49.31;99501.19;5321168;26;34048;-83
2023/06/17 06:39:56;;;;;;;;;;;;;;;22.20;49.98;99508.34;5301851;26;33515;-83
2023/06/17 06:42:23;;;;;;;;;;;;;;;22.36;48.57;99502.31;5302541;26;33818;-83
2023/06/17 06:44:51;;;;;;;;;;;;;;;22.55;48.16;99502.22;5283985;26;32435;-83
2023/06/17 06:47:19;;;;;;;;;;;;;;;22.41;48.27;99508.09;5302485;26;33031;-84
2023/06/17 06:49:47;;;;;;;;;;;;;;;22.82;47.51;99503.16;5304385;26;34728;-83
2023/06/17 06:52:15;;;;;;;;;;;;;;;22.79;48.44;99514.22;5321995;26;35174;-84
2023/06/17 06:54:43;;;;;;;;;;;;;;;22.49;48.59;99506.34;5303033;26;33579;-84
2023/06/17 06:57:10;;;;;;;;;;;;;;;22.57;47.96;99505.59;5303833;26;32953;-84
2023/06/17 06:59:37;;;;;;;;;;;;;;;22.47;48.61;99510.19;5301308;26;34145;-84
2023/06/17 07:02:05;;;;;;;;;;;;;;;22.79;47.57;99506.16;5322202;26;35091;-84
2023/06/17 07:04:33;;;;;;;;;;;;;;;22.55;47.94;99507.59;5321767;26;32730;-84
2023/06/17 07:07:02;;;;;;;;;;;;;;;22.92;47.80;99498.59;5303489;26;34679;-84
2023/06/17 07:09:36;;;;;;;;;;;;;;;23.29;46.69;99502.97;5303286;26;33558;-84
2023/06/17 07:12:04;;;;;;;;;;;;;;;23.47;46.78;99509.19;5321130;26;32776;-84
2023/06/17 07:14:34;;;;;;;;;;;;;;;23.14;46.91;99502.66;5322958;26;33627;-84
2023/06/17 07:17:02;;;;;;;;;;;;;;;23.50;46.35;99511.56;5302338;26;34183;-83
2023/06/17 07:19:30;;;;;;;;;;;;;;;23.31;46.88;99506.34;5303407;26;34973;-83
2023/06/17 07:21:59;;;;;;;;;;;;;;;23.62;45.62;99506.75;5302991;26;33948;-82
2023/06/17 07:24:27;;;;;;;;;;;;;;;23.56;45.95;99505.53;5302967;26;33504;-82
2023/06/17 07:26:55;;;;;;;;;;;;;;;23.87;45.95;99505.09;5320390;26;33671;-83
2023/06/17 07:29:23;;;;;;;;;;;;;;;23.73;46.22;99503.81;5321248;26;34987;-84
2023/06/17 07:31:51;;;;;;;;;;;;;;;24.16;44.63;99497.50;5302377;26;34110;-83
2023/06/17 07:34:18;;;;;;;;;;;;;;;24.59;44.62;99495.66;5302107;26;32844;-83
2023/06/17 07:36:52;;;;;;;;;;;;;;;24.82;43.48;99500.44;5284966;26;33454;-84
2023/06/17 07:39:20;;;;;;;;;;;;;;;24.61;43.98;99500.91;5302364;26;34809;-83
2023/06/17 07:41:47;;;;;;;;;;;;;;;24.60;42.75;99502.78;5302681;26;34225;-83
2023/06/17 07:44:15;;;;;;;;;;;;;;;24.83;41.14;99497.59;5303207;26;34012;-83
2023/06/17 07:46:42;;;;;;;;;;;;;;;24.73;41.73;99492.31;5321519;26;33731;-83
2023/06/17 07:49:10;;;;;;;;;;;;;;;24.78;41.99;99500.81;5303229;26;34073;-83
2023/06/17 07:51:37;;;;;;;;;;;;;;;25.20;41.82;99490.91;5285209;26;32570;-83
2023/06/17 07:54:08;;;;;;;;;;;;;;;25.17;40.20;99484.00;5321580;26;33398;-83
2023/06/17 07:56:35;;;;;;;;;;;;;;;24.95;41.89;99498.13;5303036;26;33656;-83
2023/06/17 07:59:03;;;;;;;;;;;;;;;25.49;40.94;99485.84;5302997;26;33302;-82
2023/06/17 08:01:32;;;;;;;;;;;;;;;25.40;40.70;99488.69;5321460;26;33943;-82
2023/06/17 08:04:00;;;;;;;;;;;;;;;25.35;41.71;99493.78;5303408;26;32663;-82
2023/06/17 08:06:29;;;;;;;;;;;;;;;25.16;42.06;99487.72;5302879;26;34060;-83
2023/06/17 08:08:57;;;;;;;;;;;;;;;25.35;40.83;99491.06;5302583;26;33137;-83
2023/06/17 08:11:24;;;;;;;;;;;;;;;25.19;41.22;99489.22;5302303;26;33429;-82
2023/06/17 08:13:53;;;;;;;;;;;;;;;24.58;43.02;99493.13;5321409;26;33122;-83
2023/06/17 08:16:20;;;;;;;;;;;;;;;24.74;42.51;99490.50;5302566;26;34527;-83
2023/06/17 08:18:48;;;;;;;;;;;;;;;24.17;42.88;99490.28;5321645;26;34876;-82
2023/06/17 08:21:16;;;;;;;;;;;;;;;24.01;43.41;99494.56;5320756;26;34201;-82
2023/06/17 08:23:43;;;;;;;;;;;;;;;24.51;42.64;99493.81;5321270;26;33127;-83
2023/06/17 08:26:11;;;;;;;;;;;;;;;24.71;42.49;99499.75;5302853;26;33957;-83
2023/06/17 08:28:39;;;;;;;;;;;;;;;24.76;42.52;99497.41;5285142;26;33508;-83
2023/06/17 08:31:06;;;;;;;;;;;;;;;24.77;42.27;99501.78;5302713;26;33159;-83
2023/06/17 08:33:34;;;;;;;;;;;;;;;24.56;42.72;99490.63;5302947;26;34046;-82
2023/06/17 08:36:01;;;;;;;;;;;;;;;24.41;43.45;99493.09;5321243;26;33952;-83
2023/06/17 08:38:29;;;;;;;;;;;;;;;24.61;43.42;99496.34;5320338;26;34668;-83
2023/06/17 08:40:56;;;;;;;;;;;;;;;24.78;42.79;99500.81;5284266;26;32954;-84
2023/06/17 08:43:23;;;;;;;;;;;;;;;24.59;43.30;99497.53;5284191;26;32189;-84
2023/06/17 08:45:51;;;;;;;;;;;;;;;25.31;41.75;99489.75;5302664;26;33932;-83
2023/06/17 08:48:19;;;;;;;;;;;;;;;25.37;42.66;99492.59;5320818;26;33387;-83
2023/06/17 08:50:47;;;;;;;;;;;;;;;25.57;41.15;99487.69;5302839;26;33040;-83
2023/06/17 08:53:14;;;;;;;;;;;;;;;25.47;40.67;99490.56;5321667;26;32898;-83
2023/06/17 08:55:42;;;;;;;;;;;;;;;25.48;40.76;99496.81;5302858;26;34185;-84
2023/06/17 08:58:10;;;;;;;;;;;;;;;25.81;39.93;99492.25;5302544;26;34359;-83
2023/06/17 09:00:37;;;;;;;;;;;;;;;25.35;41.71;99501.88;5302486;26;33542;-83
2023/06/17 09:03:06;;;;;;;;;;;;;;;25.76;39.90;99495.47;5284694;26;32251;-82
2023/06/17 09:05:34;;;;;;;;;;;;;;;25.95;39.95;99498.81;5302839;26;33391;-82
2023/06/17 09:08:01;;;;;;;;;;;;;;;25.86;40.25;99499.84;5284151;26;33902;-82
2023/06/17 09:10:28;;;;;;;;;;;;;;;25.97;39.52;99491.34;5319450;26;34188;-81
2023/06/17 09:12:59;;;;;;;;;;;;;;;25.37;41.53;99494.47;5302016;26;32929;-82
2023/06/17 09:15:26;;;;;;;;;;;;;;;25.49;40.20;99493.97;5301567;26;32831;-82
2023/06/17 09:17:54;;;;;;;;;;;;;;;26.35;38.86;99484.31;5339774;26;34913;-82
2023/06/17 09:20:22;;;;;;;;;;;;;;;26.48;37.87;99484.59;5320536;26;34466;-82
2023/06/17 09:22:49;;;;;;;;;;;;;;;26.41;39.04;99489.00;5320932;26;33118;-82
2023/06/17 09:25:18;;;;;;;;;;;;;;;25.99;38.12;99483.91;5302377;26;32676;-82
2023/06/17 09:27:46;;;;;;;;;;;;;;;26.43;37.49;99488.84;5303040;26;33462;-82
2023/06/17 09:30:35;;;;;;;;;;;;;;;26.08;38.88;99496.41;5303105;26;32917;-81
2023/06/17 09:33:04;;;;;;;;;;;;;;;26.27;40.02;99489.75;5319169;26;33319;-82
2023/06/17 09:35:32;;;;;;;;;;;;;;;26.91;38.15;99489.59;5322223;26;35153;-81
2023/06/17 09:38:04;;;;;;;;;;;;;;;26.77;37.70;99496.59;5322323;26;33772;-81
2023/06/17 09:40:32;;;;;;;;;;;;;;;26.43;37.62;99491.56;5321717;26;33722;-82
2023/06/17 09:43:01;;;;;;;;;;;;;;;26.21;38.81;99498.56;5321630;26;33328;-81
2023/06/17 09:45:50;;;;;;;;;;;;;;;26.94;37.59;99502.78;5310122;26;35061;-81
2023/06/17 09:48:19;;;;;;;;;;;;;;;27.05;37.04;99491.50;5303641;26;32805;-81
2023/06/17 09:50:48;;;;;;;;;;;;;;;26.94;37.67;99489.25;5303383;26;33595;-81
2023/06/17 09:53:16;;;;;;;;;;;;;;;27.10;37.31;99493.72;5322404;26;33490;-81
2023/06/17 09:55:43;;;;;;;;;;;;;;;26.97;37.52;99495.16;5321931;26;33643;-81
2023/06/17 09:58:11;;;;;;;;;;;;;;;27.22;37.47;99493.13;5303680;26;35020;-81
2023/06/17 10:00:39;;;;;;;;;;;;;;;26.65;37.29;99489.94;5284161;26;32894;-81
2023/06/17 10:03:06;;;;;;;;;;;;;;;27.02;37.97;99483.78;5303320;26;32764;-81
2023/06/17 10:05:34;;;;;;;;;;;;;;;26.75;37.63;99485.97;5321426;26;33815;-81
2023/06/17 10:08:02;;;;;;;;;;;;;;;27.47;36.91;99484.78;5303427;26;33398;-81
2023/06/17 10:10:30;;;;;;;;;;;;;;;27.57;36.13;99491.63;5302295;26;33019;-81
2023/06/17 10:12:57;;;;;;;;;;;;;;;27.65;34.66;99493.41;5341565;26;32904;-81
2023/06/17 10:15:25;;;;;;;;;;;;;;;27.84;34.67;99489.34;5303022;26;34849;-82
2023/06/17 10:17:52;;;;;;;;;;;;;;;27.15;36.08;99492.16;5303229;26;33401;-81
2023/06/17 10:20:20;;;;;;;;;;;;;;;27.18;36.14;99494.50;5322139;26;34022;-81
2023/06/17 10:22:50;;;;;;;;;;;;;;;26.83;36.86;99493.22;5303369;26;33325;-82
2023/06/17 10:25:17;;;;;;;;;;;;;;;27.20;36.75;99503.28;5303643;26;33194;-81
2023/06/17 10:27:45;;;;;;;;;;;;;;;27.02;36.75;99502.72;5303124;26;34049;-83
2023/06/17 10:30:22;;;;;;;;;;;;;;;27.13;36.40;99499.63;5321380;26;33979;-83
2023/06/17 10:32:57;;;;;;;;;;;;;;;26.99;36.45;99505.78;5285215;26;32852;-82
2023/06/17 10:35:38;;;;;;;;;;;;;;;26.92;37.43;99500.25;5319985;26;33407;-82
2023/06/17 10:38:10;;;;;;;;;;;;;;;26.55;38.11;99504.53;5321681;26;34571;-82
2023/06/17 10:40:47;;;;;;;;;;;;;;;26.49;37.86;99502.53;5320951;26;33760;-82
2023/06/17 10:43:15;;;;;;;;;;;;;;;25.98;38.72;99503.88;5302155;26;33295;-81
2023/06/17 10:45:52;;;;;;;;;;;;;;;27.02;36.89;99502.72;5320439;26;33671;-82
2023/06/17 10:48:24;;;;;;;;;;;;;;;27.17;37.53;99500.13;5284439;26;33202;-81
2023/06/17 10:50:52;;;;;;;;;;;;;;;27.58;36.39;99500.59;5321202;26;32882;-81
2023/06/17 10:53:27;;;;;;;;;;;;;;;26.86;38.07;99500.13;5285005;26;32134;-81
2023/06/17 10:55:56;;;;;;;;;;;;;;;27.47;36.94;99501.88;5320004;26;34569;-81
2023/06/17 10:58:31;;;;;;;;;;;;;;;27.60;37.17;99495.84;5301105;26;33811;-81
2023/06/17 11:00:59;;;;;;;;;;;;;;;27.47;35.89;99495.63;5301938;26;33962;-81
2023/06/17 11:03:27;;;;;;;;;;;;;;;27.51;35.30;99492.34;5319542;26;33085;-80
2023/06/17 11:06:01;;;;;;;;;;;;;;;27.22;36.38;99493.13;5301185;26;34619;-81
2023/06/17 11:08:30;;;;;;;;;;;;;;;26.97;35.89;99491.59;5320481;26;33996;-81
2023/06/17 11:11:08;;;;;;;;;;;;;;;27.35;36.84;99483.50;5320248;26;34835;-81
2023/06/17 11:13:39;;;;;;;;;;;;;;;27.52;37.14;99488.63;5321074;26;33093;-81
2023/06/17 11:16:07;;;;;;;;;;;;;;;27.68;35.89;99487.62;5320559;26;33781;-81
2023/06/17 11:18:35;;;;;;;;;;;;;;;27.87;35.10;99485.41;5302165;26;32981;-81
2023/06/17 11:21:03;;;;;;;;;;;;;;;27.67;34.87;99480.50;5302566;26;34315;-82
2023/06/17 11:23:31;;;;;;;;;;;;;;;27.69;35.33;99489.31;5320693;26;32510;-82
2023/06/17 11:25:59;;;;;;;;;;;;;;;28.08;34.43;99488.25;5320799;26;33797;-82
2023/06/17 11:28:27;;;;;;;;;;;;;;;27.98;33.73;99483.09;5302907;26;33244;-82
2023/06/17 11:30:55;;;;;;;;;;;;;;;27.71;34.64;99492.69;5302635;26;33573;-82
2023/06/17 11:33:23;;;;;;;;;;;;;;;27.60;34.07;99490.41;5321062;26;33763;-82
2023/06/17 11:35:52;;;;;;;;;;;;;;;27.41;34.96;99480.94;5302378;26;32916;-82
2023/06/17 11:38:20;;;;;;;;;;;;;;;27.73;34.62;99485.25;5304929;26;33929;-82
2023/06/17 11:40:52;;;;;;;;;;;;;;;27.73;34.86;99490.66;5343356;26;33771;-82
2023/06/17 11:43:24;;;;;;;;;;;;;;;27.51;36.03;99491.53;5323500;26;32905;-82
2023/06/17 11:45:56;;;;;;;;;;;;;;;27.56;35.21;99483.66;5305364;26;33096;-82
2023/06/17 11:48:28;;;;;;;;;;;;;;;28.16;35.43;99477.31;5305577;26;35033;-82
2023/06/17 11:50:57;;;;;;;;;;;;;;;27.99;34.53;99473.09;5305035;26;32939;-82
2023/06/17 11:53:43;;;;;;;;;;;;;;;28.24;33.69;99481.75;5323841;26;33465;-82
2023/06/17 11:56:12;;;;;;;;;;;;;;;28.47;32.92;99466.22;5305412;26;33911;-82
2023/06/17 11:58:40;;;;;;;;;;;;;;;28.41;33.15;99468.88;5323503;26;34122;-81
2023/06/17 12:01:08;;;;;;;;;;;;;;;28.13;33.01;99477.66;5323309;26;33142;-81
2023/06/17 12:03:39;;;;;;;;;;;;;;;28.07;33.07;99473.00;5323550;26;33146;-82
2023/06/17 12:06:07;;;;;;;;;;;;;;;28.38;33.05;99471.94;5306028;26;32941;-82
2023/06/17 12:08:37;;;;;;;;;;;;;;;28.22;32.78;99472.97;5323697;26;33818;-83
2023/06/17 12:11:07;;;;;;;;;;;;;;;27.94;33.92;99472.81;5323392;26;33661;-82
2023/06/17 12:13:40;;;;;;;;;;;;;;;28.05;33.38;99473.16;5343187;26;33154;-82
2023/06/17 12:16:09;;;;;;;;;;;;;;;28.06;32.59;99469.44;5322881;26;34276;-82
2023/06/17 12:18:36;;;;;;;;;;;;;;;27.68;33.80;99470.50;5304465;26;33472;-82
2023/06/17 12:21:10;;;;;;;;;;;;;;;27.65;32.74;99476.31;5304902;26;34407;-82
2023/06/17 12:23:38;;;;;;;;;;;;;;;27.73;34.62;99468.97;5306108;26;33286;-82
2023/06/17 12:26:05;;;;;;;;;;;;;;;28.37;33.46;99462.13;5323569;26;34250;-82
2023/06/17 12:28:33;;;;;;;;;;;;;;;28.35;32.55;99456.06;5305092;26;34074;-82
2023/06/17 12:31:02;;;;;;;;;;;;;;;28.14;32.74;99460.34;5322627;26;34265;-82
2023/06/17 12:33:29;;;;;;;;;;;;;;;28.68;32.61;99451.84;5286454;26;32333;-81
2023/06/17 12:35:56;;;;;;;;;;;;;;;28.86;32.34;99458.72;5304450;26;34426;-82
2023/06/17 12:38:24;;;;;;;;;;;;;;;28.50;33.00;99456.88;5305345;26;34785;-81
2023/06/17 12:40:52;;;;;;;;;;;;;;;28.93;31.19;99455.03;5302067;26;34118;-82
2023/06/17 12:43:19;;;;;;;;;;;;;;;28.93;31.39;99443.31;5341034;26;32952;-82
2023/06/17 12:45:47;;;;;;;;;;;;;;;29.17;31.93;99442.94;5302286;26;34476;-81
2023/06/17 12:48:14;;;;;;;;;;;;;;;29.25;31.70;99445.53;5283915;26;33471;-82
2023/06/17 12:50:43;;;;;;;;;;;;;;;28.74;30.62;99450.25;5302725;26;33719;-82
2023/06/17 12:53:13;;;;;;;;;;;;;;;28.77;31.34;99453.41;5321390;26;33042;-82
2023/06/17 12:55:40;;;;;;;;;;;;;;;28.46;31.80;99441.97;5302245;26;34601;-81